sensor_id;sensor_type;location;lat;lon;timestamp;temperature;humidity
20714;DHT22;10518;50.742;4.226;2022-10-23T00:01:55;15.50;99.90
20714;DHT22;10518;50.742;4.226;2022-10-23T00:04:22;15.50;99.90
20714;DHT22;10518;50.742;4.226;2022-10-23T00:06:49;15.50;99.90
20714;DHT22;10518;50.742;4.226;2022-10-23T00:09:18;15.50;99.90
20714;DHT22;10518;50.742;4.226;2022-10-23T00:11:44;15.60;99.90
20714;DHT22;10518;50.742;4.226;2022-10-23T00:14:12;15.50;99.90
20714;DHT22;10518;50.742;4.226;2022-10-23T00:16:38;15.60;99.90
20714;DHT22;10518;50.742;4.226;2022-10-23T00:19:04;15.60;99.90
20714;DHT22;10518;50.742;4.226;2022-10-23T00:21:29;15.50;99.90
20714;DHT22;10518;50.742;4.226;2022-10-23T00:23:55;15.50;99.90
20714;DHT22;10518;50.742;4.226;2022-10-23T00:26:21;15.50;99.90
20714;DHT22;10518;50.742;4.226;2022-10-23T00:28:49;15.50;99.90
20714;DHT22;10518;50.742;4.226;2022-10-23T00:31:17;15.50;99.90
20714;DHT22;10518;50.742;4.226;2022-10-23T00:33:43;15.60;99.90
20714;DHT22;10518;50.742;4.226;2022-10-23T00:36:12;15.50;99.90
20714;DHT22;10518;50.742;4.226;2022-10-23T00:38:38;15.50;99.90
20714;DHT22;10518;50.742;4.226;2022-10-23T00:41:05;15.60;99.90
20714;DHT22;10518;50.742;4.226;2022-10-23T00:43:31;15.50;99.90
20714;DHT22;10518;50.742;4.226;2022-10-23T00:45:58;15.50;99.90
20714;DHT22;10518;50.742;4.226;2022-10-23T00:48:25;15.50;99.90
20714;DHT22;10518;50.742;4.226;2022-10-23T00:50:52;15.60;99.90
20714;DHT22;10518;50.742;4.226;2022-10-23T00:53:18;15.60;99.90
20714;DHT22;10518;50.742;4.226;2022-10-23T00:55:46;15.60;99.90
20714;DHT22;10518;50.742;4.226;2022-10-23T00:58:14;15.60;99.90
20714;DHT22;10518;50.742;4.226;2022-10-23T01:00:52;15.60;99.90
20714;DHT22;10518;50.742;4.226;2022-10-23T01:03:20;15.50;99.90
20714;DHT22;10518;50.742;4.226;2022-10-23T01:06:04;15.50;99.90
20714;DHT22;10518;50.742;4.226;2022-10-23T01:08:39;15.50;99.90
20714;DHT22;10518;50.742;4.226;2022-10-23T01:11:32;15.60;99.90
20714;DHT22;10518;50.742;4.226;2022-10-23T01:14:05;15.70;99.90
20714;DHT22;10518;50.742;4.226;2022-10-23T01:17:00;15.70;99.90
20714;DHT22;10518;50.742;4.226;2022-10-23T01:22:47;15.80;99.90
20714;DHT22;10518;50.742;4.226;2022-10-23T01:27:55;15.80;99.90
20714;DHT22;10518;50.742;4.226;2022-10-23T01:30:22;15.80;99.90
20714;DHT22;10518;50.742;4.226;2022-10-23T01:32:54;15.80;99.90
20714;DHT22;10518;50.742;4.226;2022-10-23T01:35:36;15.80;99.90
20714;DHT22;10518;50.742;4.226;2022-10-23T01:38:17;15.90;99.90
20714;DHT22;10518;50.742;4.226;2022-10-23T01:40:51;15.90;99.90
20714;DHT22;10518;50.742;4.226;2022-10-23T01:43:43;15.80;99.90
20714;DHT22;10518;50.742;4.226;2022-10-23T01:46:11;15.90;99.90
20714;DHT22;10518;50.742;4.226;2022-10-23T01:48:40;15.90;99.90
20714;DHT22;10518;50.742;4.226;2022-10-23T01:51:11;16.00;99.90
20714;DHT22;10518;50.742;4.226;2022-10-23T01:53:41;16.00;99.90
20714;DHT22;10518;50.742;4.226;2022-10-23T01:56:13;16.00;99.90
20714;DHT22;10518;50.742;4.226;2022-10-23T01:58:42;16.00;99.90
20714;DHT22;10518;50.742;4.226;2022-10-23T02:01:10;16.10;99.90
20714;DHT22;10518;50.742;4.226;2022-10-23T02:03:38;16.00;99.90
20714;DHT22;10518;50.742;4.226;2022-10-23T02:06:06;16.10;99.90
20714;DHT22;10518;50.742;4.226;2022-10-23T02:08:32;16.10;99.90
20714;DHT22;10518;50.742;4.226;2022-10-23T02:11:03;16.10;99.90
20714;DHT22;10518;50.742;4.226;2022-10-23T02:16:07;16.00;99.90
20714;DHT22;10518;50.742;4.226;2022-10-23T02:24:28;16.10;99.90
20714;DHT22;10518;50.742;4.226;2022-10-23T02:27:00;16.10;99.90
20714;DHT22;10518;50.742;4.226;2022-10-23T02:29:45;16.20;99.90
20714;DHT22;10518;50.742;4.226;2022-10-23T02:32:13;16.10;99.90
20714;DHT22;10518;50.742;4.226;2022-10-23T02:34:40;16.20;99.90
20714;DHT22;10518;50.742;4.226;2022-10-23T02:37:06;16.10;99.90
20714;DHT22;10518;50.742;4.226;2022-10-23T02:39:31;16.10;99.90
20714;DHT22;10518;50.742;4.226;2022-10-23T02:42:10;16.10;99.90
20714;DHT22;10518;50.742;4.226;2022-10-23T02:47:38;16.10;99.90
20714;DHT22;10518;50.742;4.226;2022-10-23T02:50:37;16.10;99.90
20714;DHT22;10518;50.742;4.226;2022-10-23T02:56:12;16.10;99.90
20714;DHT22;10518;50.742;4.226;2022-10-23T03:01:18;16.10;99.90
20714;DHT22;10518;50.742;4.226;2022-10-23T03:03:51;16.10;99.90
20714;DHT22;10518;50.742;4.226;2022-10-23T03:06:18;16.10;99.90
20714;DHT22;10518;50.742;4.226;2022-10-23T03:09:04;16.10;99.90
20714;DHT22;10518;50.742;4.226;2022-10-23T03:11:30;16.10;99.90
20714;DHT22;10518;50.742;4.226;2022-10-23T03:13:55;16.10;99.90
20714;DHT22;10518;50.742;4.226;2022-10-23T03:16:21;16.00;99.90
20714;DHT22;10518;50.742;4.226;2022-10-23T03:18:47;16.10;99.90
20714;DHT22;10518;50.742;4.226;2022-10-23T03:21:12;16.10;99.90
20714;DHT22;10518;50.742;4.226;2022-10-23T03:23:38;16.10;99.90
20714;DHT22;10518;50.742;4.226;2022-10-23T03:26:04;16.00;99.90
20714;DHT22;10518;50.742;4.226;2022-10-23T03:28:29;16.00;99.90
20714;DHT22;10518;50.742;4.226;2022-10-23T03:30:55;16.00;99.90
20714;DHT22;10518;50.742;4.226;2022-10-23T03:33:21;16.00;99.90
20714;DHT22;10518;50.742;4.226;2022-10-23T03:35:47;16.10;99.90
20714;DHT22;10518;50.742;4.226;2022-10-23T03:38:13;16.00;99.90
20714;DHT22;10518;50.742;4.226;2022-10-23T03:40:39;16.00;99.90
20714;DHT22;10518;50.742;4.226;2022-10-23T03:43:05;16.10;99.90
20714;DHT22;10518;50.742;4.226;2022-10-23T03:45:30;16.10;99.90
20714;DHT22;10518;50.742;4.226;2022-10-23T03:47:57;16.10;99.90
20714;DHT22;10518;50.742;4.226;2022-10-23T03:50:23;16.10;99.90
20714;DHT22;10518;50.742;4.226;2022-10-23T03:52:48;16.10;99.90
20714;DHT22;10518;50.742;4.226;2022-10-23T03:55:14;16.00;99.90
20714;DHT22;10518;50.742;4.226;2022-10-23T03:57:40;16.10;99.90
20714;DHT22;10518;50.742;4.226;2022-10-23T04:00:06;16.00;99.90
20714;DHT22;10518;50.742;4.226;2022-10-23T04:02:32;16.10;99.90
20714;DHT22;10518;50.742;4.226;2022-10-23T04:04:57;16.00;99.90
20714;DHT22;10518;50.742;4.226;2022-10-23T04:07:23;16.00;99.90
20714;DHT22;10518;50.742;4.226;2022-10-23T04:09:49;16.10;99.90
20714;DHT22;10518;50.742;4.226;2022-10-23T04:12:14;16.00;99.90
20714;DHT22;10518;50.742;4.226;2022-10-23T04:14:40;15.90;99.90
20714;DHT22;10518;50.742;4.226;2022-10-23T04:17:05;16.10;99.90
20714;DHT22;10518;50.742;4.226;2022-10-23T04:19:31;16.10;99.90
20714;DHT22;10518;50.742;4.226;2022-10-23T04:21:56;16.10;99.90
20714;DHT22;10518;50.742;4.226;2022-10-23T04:24:23;16.10;99.90
20714;DHT22;10518;50.742;4.226;2022-10-23T04:26:49;15.90;99.90
20714;DHT22;10518;50.742;4.226;2022-10-23T04:29:15;15.90;99.90
20714;DHT22;10518;50.742;4.226;2022-10-23T04:31:40;16.00;99.90
20714;DHT22;10518;50.742;4.226;2022-10-23T04:34:06;16.00;99.90
20714;DHT22;10518;50.742;4.226;2022-10-23T04:36:31;16.00;99.90
20714;DHT22;10518;50.742;4.226;2022-10-23T04:38:57;16.20;99.90
20714;DHT22;10518;50.742;4.226;2022-10-23T04:41:23;16.30;99.90
20714;DHT22;10518;50.742;4.226;2022-10-23T04:43:48;16.10;99.90
20714;DHT22;10518;50.742;4.226;2022-10-23T04:46:14;16.20;99.90
20714;DHT22;10518;50.742;4.226;2022-10-23T04:48:39;16.20;99.90
20714;DHT22;10518;50.742;4.226;2022-10-23T04:51:06;16.20;99.90
20714;DHT22;10518;50.742;4.226;2022-10-23T04:53:31;16.30;99.90
20714;DHT22;10518;50.742;4.226;2022-10-23T04:55:58;16.30;99.90
20714;DHT22;10518;50.742;4.226;2022-10-23T04:58:25;16.40;99.90
20714;DHT22;10518;50.742;4.226;2022-10-23T05:00:51;16.40;99.90
20714;DHT22;10518;50.742;4.226;2022-10-23T05:03:18;16.30;99.90
20714;DHT22;10518;50.742;4.226;2022-10-23T05:05:44;16.40;99.90
20714;DHT22;10518;50.742;4.226;2022-10-23T05:08:10;16.30;99.90
20714;DHT22;10518;50.742;4.226;2022-10-23T05:10:36;16.30;99.90
20714;DHT22;10518;50.742;4.226;2022-10-23T05:13:02;16.30;99.90
20714;DHT22;10518;50.742;4.226;2022-10-23T05:15:28;16.30;99.90
20714;DHT22;10518;50.742;4.226;2022-10-23T05:17:57;16.30;99.90
20714;DHT22;10518;50.742;4.226;2022-10-23T05:20:27;16.30;99.90
20714;DHT22;10518;50.742;4.226;2022-10-23T05:22:56;16.40;99.90
20714;DHT22;10518;50.742;4.226;2022-10-23T05:25:22;16.40;99.90
20714;DHT22;10518;50.742;4.226;2022-10-23T05:27:48;16.50;99.90
20714;DHT22;10518;50.742;4.226;2022-10-23T05:30:13;16.50;99.90
20714;DHT22;10518;50.742;4.226;2022-10-23T05:32:39;16.50;99.90
20714;DHT22;10518;50.742;4.226;2022-10-23T05:35:08;16.50;99.90
20714;DHT22;10518;50.742;4.226;2022-10-23T05:37:39;16.40;99.90
20714;DHT22;10518;50.742;4.226;2022-10-23T05:40:05;16.60;99.90
20714;DHT22;10518;50.742;4.226;2022-10-23T05:42:31;16.60;99.90
20714;DHT22;10518;50.742;4.226;2022-10-23T05:44:57;16.50;99.90
20714;DHT22;10518;50.742;4.226;2022-10-23T05:47:23;16.50;99.90
20714;DHT22;10518;50.742;4.226;2022-10-23T05:49:48;16.50;99.90
20714;DHT22;10518;50.742;4.226;2022-10-23T05:52:14;16.60;99.90
20714;DHT22;10518;50.742;4.226;2022-10-23T05:54:39;16.70;99.90
20714;DHT22;10518;50.742;4.226;2022-10-23T05:57:05;16.60;99.90
20714;DHT22;10518;50.742;4.226;2022-10-23T05:59:30;16.50;99.90
20714;DHT22;10518;50.742;4.226;2022-10-23T06:01:56;16.30;99.90
20714;DHT22;10518;50.742;4.226;2022-10-23T06:04:21;16.20;99.90
20714;DHT22;10518;50.742;4.226;2022-10-23T06:06:47;16.20;99.90
20714;DHT22;10518;50.742;4.226;2022-10-23T06:09:14;16.40;99.90
20714;DHT22;10518;50.742;4.226;2022-10-23T06:11:40;16.50;99.90
20714;DHT22;10518;50.742;4.226;2022-10-23T06:14:06;16.50;99.90
20714;DHT22;10518;50.742;4.226;2022-10-23T06:16:32;16.40;99.90
20714;DHT22;10518;50.742;4.226;2022-10-23T06:18:57;16.40;99.90
20714;DHT22;10518;50.742;4.226;2022-10-23T06:21:24;16.30;99.90
20714;DHT22;10518;50.742;4.226;2022-10-23T06:23:50;16.40;99.90
20714;DHT22;10518;50.742;4.226;2022-10-23T06:26:17;16.60;99.90
20714;DHT22;10518;50.742;4.226;2022-10-23T06:28:44;16.60;99.90
20714;DHT22;10518;50.742;4.226;2022-10-23T06:31:12;16.50;99.90
20714;DHT22;10518;50.742;4.226;2022-10-23T06:33:39;16.50;99.90
20714;DHT22;10518;50.742;4.226;2022-10-23T06:36:05;16.50;99.90
20714;DHT22;10518;50.742;4.226;2022-10-23T06:38:32;16.50;99.90
20714;DHT22;10518;50.742;4.226;2022-10-23T06:41:01;16.40;99.90
20714;DHT22;10518;50.742;4.226;2022-10-23T06:43:27;16.50;99.90
20714;DHT22;10518;50.742;4.226;2022-10-23T06:45:53;16.40;99.90
20714;DHT22;10518;50.742;4.226;2022-10-23T06:48:18;16.40;99.90
20714;DHT22;10518;50.742;4.226;2022-10-23T06:50:44;16.40;99.90
20714;DHT22;10518;50.742;4.226;2022-10-23T06:53:10;16.50;99.90
20714;DHT22;10518;50.742;4.226;2022-10-23T06:55:37;16.60;99.90
20714;DHT22;10518;50.742;4.226;2022-10-23T06:58:06;16.60;99.90
20714;DHT22;10518;50.742;4.226;2022-10-23T07:00:38;16.60;99.90
20714;DHT22;10518;50.742;4.226;2022-10-23T07:03:04;16.60;99.90
20714;DHT22;10518;50.742;4.226;2022-10-23T07:05:29;16.70;99.90
20714;DHT22;10518;50.742;4.226;2022-10-23T07:07:55;16.70;99.90
20714;DHT22;10518;50.742;4.226;2022-10-23T07:10:20;16.70;99.90
20714;DHT22;10518;50.742;4.226;2022-10-23T07:12:46;16.70;99.90
20714;DHT22;10518;50.742;4.226;2022-10-23T07:15:13;16.70;99.90
20714;DHT22;10518;50.742;4.226;2022-10-23T07:17:39;16.70;99.90
20714;DHT22;10518;50.742;4.226;2022-10-23T07:20:05;16.80;99.90
20714;DHT22;10518;50.742;4.226;2022-10-23T07:22:31;16.70;99.90
20714;DHT22;10518;50.742;4.226;2022-10-23T07:24:57;16.90;99.90
20714;DHT22;10518;50.742;4.226;2022-10-23T07:27:22;16.90;99.90
20714;DHT22;10518;50.742;4.226;2022-10-23T07:29:49;17.00;99.90
20714;DHT22;10518;50.742;4.226;2022-10-23T07:32:15;17.00;99.90
20714;DHT22;10518;50.742;4.226;2022-10-23T07:34:40;16.90;99.90
20714;DHT22;10518;50.742;4.226;2022-10-23T07:37:06;16.90;99.90
20714;DHT22;10518;50.742;4.226;2022-10-23T07:39:32;16.80;99.90
20714;DHT22;10518;50.742;4.226;2022-10-23T07:41:57;17.00;99.90
20714;DHT22;10518;50.742;4.226;2022-10-23T07:44:23;17.00;99.90
20714;DHT22;10518;50.742;4.226;2022-10-23T07:46:49;16.90;99.90
20714;DHT22;10518;50.742;4.226;2022-10-23T07:49:14;16.80;99.90
20714;DHT22;10518;50.742;4.226;2022-10-23T07:51:40;16.80;99.90
20714;DHT22;10518;50.742;4.226;2022-10-23T07:54:08;16.80;99.90
20714;DHT22;10518;50.742;4.226;2022-10-23T07:56:34;16.70;99.90
20714;DHT22;10518;50.742;4.226;2022-10-23T07:58:59;16.70;99.90
20714;DHT22;10518;50.742;4.226;2022-10-23T08:01:36;16.80;99.90
20714;DHT22;10518;50.742;4.226;2022-10-23T08:04:03;16.90;99.90
20714;DHT22;10518;50.742;4.226;2022-10-23T08:06:28;16.80;99.90
20714;DHT22;10518;50.742;4.226;2022-10-23T08:08:54;16.80;99.90
20714;DHT22;10518;50.742;4.226;2022-10-23T08:11:22;16.90;99.90
20714;DHT22;10518;50.742;4.226;2022-10-23T08:13:54;16.80;99.90
20714;DHT22;10518;50.742;4.226;2022-10-23T08:16:20;16.70;99.90
20714;DHT22;10518;50.742;4.226;2022-10-23T08:18:46;16.60;99.90
20714;DHT22;10518;50.742;4.226;2022-10-23T08:21:14;16.70;99.90
20714;DHT22;10518;50.742;4.226;2022-10-23T08:23:40;16.90;99.90
20714;DHT22;10518;50.742;4.226;2022-10-23T08:26:06;16.90;99.90
20714;DHT22;10518;50.742;4.226;2022-10-23T08:28:32;17.00;99.90
20714;DHT22;10518;50.742;4.226;2022-10-23T08:30:58;17.20;99.90
20714;DHT22;10518;50.742;4.226;2022-10-23T08:33:24;17.30;99.90
20714;DHT22;10518;50.742;4.226;2022-10-23T08:35:49;17.50;99.90
20714;DHT22;10518;50.742;4.226;2022-10-23T08:38:15;17.30;99.90
20714;DHT22;10518;50.742;4.226;2022-10-23T08:40:45;17.30;99.90
20714;DHT22;10518;50.742;4.226;2022-10-23T08:43:20;17.30;99.90
20714;DHT22;10518;50.742;4.226;2022-10-23T08:45:59;17.40;99.90
20714;DHT22;10518;50.742;4.226;2022-10-23T08:48:31;17.50;99.90
20714;DHT22;10518;50.742;4.226;2022-10-23T08:54:07;17.60;99.90
20714;DHT22;10518;50.742;4.226;2022-10-23T08:56:41;17.60;99.90
20714;DHT22;10518;50.742;4.226;2022-10-23T09:01:48;17.80;99.90
20714;DHT22;10518;50.742;4.226;2022-10-23T09:04:16;17.80;99.90
20714;DHT22;10518;50.742;4.226;2022-10-23T09:06:54;17.70;99.90
20714;DHT22;10518;50.742;4.226;2022-10-23T09:09:38;17.70;99.90
20714;DHT22;10518;50.742;4.226;2022-10-23T09:12:10;17.70;99.90
20714;DHT22;10518;50.742;4.226;2022-10-23T09:14:53;17.60;99.90
20714;DHT22;10518;50.742;4.226;2022-10-23T09:17:31;17.60;99.90
20714;DHT22;10518;50.742;4.226;2022-10-23T09:20:20;17.90;99.90
20714;DHT22;10518;50.742;4.226;2022-10-23T09:22:57;18.10;99.90
20714;DHT22;10518;50.742;4.226;2022-10-23T09:25:26;18.50;99.90
20714;DHT22;10518;50.742;4.226;2022-10-23T09:27:55;18.50;99.90
20714;DHT22;10518;50.742;4.226;2022-10-23T09:30:48;18.60;99.90
20714;DHT22;10518;50.742;4.226;2022-10-23T09:33:20;18.40;99.90
20714;DHT22;10518;50.742;4.226;2022-10-23T09:40:54;18.30;99.90
20714;DHT22;10518;50.742;4.226;2022-10-23T09:43:19;18.30;99.90
20714;DHT22;10518;50.742;4.226;2022-10-23T09:45:59;18.30;99.90
20714;DHT22;10518;50.742;4.226;2022-10-23T09:48:26;18.40;99.90
20714;DHT22;10518;50.742;4.226;2022-10-23T09:51:03;18.70;99.90
20714;DHT22;10518;50.742;4.226;2022-10-23T09:56:00;18.60;99.90
20714;DHT22;10518;50.742;4.226;2022-10-23T09:58:42;18.60;99.90
20714;DHT22;10518;50.742;4.226;2022-10-23T10:01:33;18.80;99.90
20714;DHT22;10518;50.742;4.226;2022-10-23T10:04:03;18.70;99.90
20714;DHT22;10518;50.742;4.226;2022-10-23T10:06:32;18.80;99.90
20714;DHT22;10518;50.742;4.226;2022-10-23T10:09:02;18.90;99.90
20714;DHT22;10518;50.742;4.226;2022-10-23T10:11:51;19.00;99.90
20714;DHT22;10518;50.742;4.226;2022-10-23T10:22:11;19.40;99.90
20714;DHT22;10518;50.742;4.226;2022-10-23T10:24:51;19.30;99.90
20714;DHT22;10518;50.742;4.226;2022-10-23T10:27:40;19.50;99.90
20714;DHT22;10518;50.742;4.226;2022-10-23T10:35:21;19.20;99.90
20714;DHT22;10518;50.742;4.226;2022-10-23T10:48:57;19.50;99.90
20714;DHT22;10518;50.742;4.226;2022-10-23T10:51:43;19.60;99.90
20714;DHT22;10518;50.742;4.226;2022-10-23T10:57:32;19.50;99.90
20714;DHT22;10518;50.742;4.226;2022-10-23T11:00:12;19.70;99.90
20714;DHT22;10518;50.742;4.226;2022-10-23T11:02:54;19.70;99.90
20714;DHT22;10518;50.742;4.226;2022-10-23T11:08:03;19.90;99.90
20714;DHT22;10518;50.742;4.226;2022-10-23T11:10:30;20.00;99.90
20714;DHT22;10518;50.742;4.226;2022-10-23T11:12:56;19.70;99.90
20714;DHT22;10518;50.742;4.226;2022-10-23T11:15:29;20.00;99.90
20714;DHT22;10518;50.742;4.226;2022-10-23T11:18:02;20.30;99.90
20714;DHT22;10518;50.742;4.226;2022-10-23T11:20:38;20.50;99.90
20714;DHT22;10518;50.742;4.226;2022-10-23T11:26:00;20.00;99.90
20714;DHT22;10518;50.742;4.226;2022-10-23T11:29:03;20.00;99.90
20714;DHT22;10518;50.742;4.226;2022-10-23T11:31:44;20.40;99.90
20714;DHT22;10518;50.742;4.226;2022-10-23T11:34:36;20.30;99.90
20714;DHT22;10518;50.742;4.226;2022-10-23T11:37:04;20.70;99.90
20714;DHT22;10518;50.742;4.226;2022-10-23T11:39:32;20.70;99.90
20714;DHT22;10518;50.742;4.226;2022-10-23T11:45:51;20.60;99.90
20714;DHT22;10518;50.742;4.226;2022-10-23T11:48:21;20.60;99.90
20714;DHT22;10518;50.742;4.226;2022-10-23T11:58:56;20.70;99.90
20714;DHT22;10518;50.742;4.226;2022-10-23T12:01:42;20.70;99.90
20714;DHT22;10518;50.742;4.226;2022-10-23T12:17:39;21.10;99.90
20714;DHT22;10518;50.742;4.226;2022-10-23T12:31:25;21.20;99.90
20714;DHT22;10518;50.742;4.226;2022-10-23T12:34:02;21.30;99.90
20714;DHT22;10518;50.742;4.226;2022-10-23T12:37:07;21.30;99.90
20714;DHT22;10518;50.742;4.226;2022-10-23T12:39:36;21.20;99.90
20714;DHT22;10518;50.742;4.226;2022-10-23T12:42:08;21.50;99.90
20714;DHT22;10518;50.742;4.226;2022-10-23T12:44:35;21.70;99.90
20714;DHT22;10518;50.742;4.226;2022-10-23T12:47:02;21.40;99.90
20714;DHT22;10518;50.742;4.226;2022-10-23T12:49:29;21.50;99.90
20714;DHT22;10518;50.742;4.226;2022-10-23T12:52:15;21.10;99.90
20714;DHT22;10518;50.742;4.226;2022-10-23T12:54:41;21.10;99.90
20714;DHT22;10518;50.742;4.226;2022-10-23T12:57:22;21.50;99.90
20714;DHT22;10518;50.742;4.226;2022-10-23T12:59:49;21.40;99.90
20714;DHT22;10518;50.742;4.226;2022-10-23T13:02:27;21.30;99.90
20714;DHT22;10518;50.742;4.226;2022-10-23T13:04:54;21.60;99.90
20714;DHT22;10518;50.742;4.226;2022-10-23T13:07:26;21.50;99.90
20714;DHT22;10518;50.742;4.226;2022-10-23T13:09:53;21.20;99.90
20714;DHT22;10518;50.742;4.226;2022-10-23T13:12:25;21.10;99.90
20714;DHT22;10518;50.742;4.226;2022-10-23T13:15:11;21.40;99.90
20714;DHT22;10518;50.742;4.226;2022-10-23T13:17:43;21.50;99.90
20714;DHT22;10518;50.742;4.226;2022-10-23T13:22:45;21.80;99.90
20714;DHT22;10518;50.742;4.226;2022-10-23T13:25:20;21.70;99.90
20714;DHT22;10518;50.742;4.226;2022-10-23T13:27:46;21.30;99.90
20714;DHT22;10518;50.742;4.226;2022-10-23T13:30:29;21.40;99.90
20714;DHT22;10518;50.742;4.226;2022-10-23T13:32:55;21.30;99.90
20714;DHT22;10518;50.742;4.226;2022-10-23T13:35:22;21.50;99.90
20714;DHT22;10518;50.742;4.226;2022-10-23T13:37:48;21.50;99.90
20714;DHT22;10518;50.742;4.226;2022-10-23T13:40:26;21.70;99.90
20714;DHT22;10518;50.742;4.226;2022-10-23T13:42:53;21.70;99.90
20714;DHT22;10518;50.742;4.226;2022-10-23T13:45:22;21.80;99.90
20714;DHT22;10518;50.742;4.226;2022-10-23T13:47:49;21.90;99.90
20714;DHT22;10518;50.742;4.226;2022-10-23T13:50:15;21.60;99.90
20714;DHT22;10518;50.742;4.226;2022-10-23T13:52:41;21.50;99.90
20714;DHT22;10518;50.742;4.226;2022-10-23T13:55:25;21.40;99.90
20714;DHT22;10518;50.742;4.226;2022-10-23T13:57:51;21.50;99.90
20714;DHT22;10518;50.742;4.226;2022-10-23T14:00:17;21.30;99.90
20714;DHT22;10518;50.742;4.226;2022-10-23T14:02:43;21.30;99.90
20714;DHT22;10518;50.742;4.226;2022-10-23T14:05:09;21.10;99.90
20714;DHT22;10518;50.742;4.226;2022-10-23T14:07:35;21.20;99.90
20714;DHT22;10518;50.742;4.226;2022-10-23T14:10:01;21.50;99.90
20714;DHT22;10518;50.742;4.226;2022-10-23T14:12:27;21.60;99.90
20714;DHT22;10518;50.742;4.226;2022-10-23T14:14:53;21.40;99.90
20714;DHT22;10518;50.742;4.226;2022-10-23T14:17:19;21.30;99.90
20714;DHT22;10518;50.742;4.226;2022-10-23T14:19:45;21.50;99.90
20714;DHT22;10518;50.742;4.226;2022-10-23T14:22:11;21.50;99.90
20714;DHT22;10518;50.742;4.226;2022-10-23T14:24:37;21.30;99.90
20714;DHT22;10518;50.742;4.226;2022-10-23T14:27:02;21.30;99.90
20714;DHT22;10518;50.742;4.226;2022-10-23T14:29:28;21.30;99.90
20714;DHT22;10518;50.742;4.226;2022-10-23T14:31:54;21.30;99.90
20714;DHT22;10518;50.742;4.226;2022-10-23T14:34:20;21.20;99.90
20714;DHT22;10518;50.742;4.226;2022-10-23T14:36:45;21.30;99.90
20714;DHT22;10518;50.742;4.226;2022-10-23T14:39:11;21.20;99.90
20714;DHT22;10518;50.742;4.226;2022-10-23T14:41:36;21.20;99.90
20714;DHT22;10518;50.742;4.226;2022-10-23T14:44:05;21.40;99.90
20714;DHT22;10518;50.742;4.226;2022-10-23T14:46:31;21.20;99.90
20714;DHT22;10518;50.742;4.226;2022-10-23T14:48:57;21.40;99.90
20714;DHT22;10518;50.742;4.226;2022-10-23T14:51:24;21.50;99.90
20714;DHT22;10518;50.742;4.226;2022-10-23T14:53:58;21.30;99.90
20714;DHT22;10518;50.742;4.226;2022-10-23T14:56:30;21.30;99.90
20714;DHT22;10518;50.742;4.226;2022-10-23T14:58:57;21.30;99.90
20714;DHT22;10518;50.742;4.226;2022-10-23T15:01:28;21.20;99.90
20714;DHT22;10518;50.742;4.226;2022-10-23T15:03:53;21.10;99.90
20714;DHT22;10518;50.742;4.226;2022-10-23T15:06:20;21.10;99.90
20714;DHT22;10518;50.742;4.226;2022-10-23T15:08:51;21.10;99.90
20714;DHT22;10518;50.742;4.226;2022-10-23T15:11:19;21.00;99.90
20714;DHT22;10518;50.742;4.226;2022-10-23T15:13:44;20.70;99.90
20714;DHT22;10518;50.742;4.226;2022-10-23T15:16:10;20.60;99.90
20714;DHT22;10518;50.742;4.226;2022-10-23T15:18:36;20.60;99.90
20714;DHT22;10518;50.742;4.226;2022-10-23T15:21:06;20.60;99.90
20714;DHT22;10518;50.742;4.226;2022-10-23T15:23:33;20.60;99.90
20714;DHT22;10518;50.742;4.226;2022-10-23T15:26:01;20.60;99.90
20714;DHT22;10518;50.742;4.226;2022-10-23T15:28:27;20.70;99.90
20714;DHT22;10518;50.742;4.226;2022-10-23T15:30:53;21.10;99.90
20714;DHT22;10518;50.742;4.226;2022-10-23T15:33:20;20.90;99.90
20714;DHT22;10518;50.742;4.226;2022-10-23T15:35:45;20.80;99.90
20714;DHT22;10518;50.742;4.226;2022-10-23T15:38:11;20.70;99.90
20714;DHT22;10518;50.742;4.226;2022-10-23T15:40:37;20.60;99.90
20714;DHT22;10518;50.742;4.226;2022-10-23T15:43:02;20.60;99.90
20714;DHT22;10518;50.742;4.226;2022-10-23T15:45:29;20.40;99.90
20714;DHT22;10518;50.742;4.226;2022-10-23T15:47:55;20.70;99.90
20714;DHT22;10518;50.742;4.226;2022-10-23T15:50:21;20.60;99.90
20714;DHT22;10518;50.742;4.226;2022-10-23T15:52:46;20.50;99.90
20714;DHT22;10518;50.742;4.226;2022-10-23T15:55:12;20.60;99.90
20714;DHT22;10518;50.742;4.226;2022-10-23T15:57:38;20.70;99.90
20714;DHT22;10518;50.742;4.226;2022-10-23T16:00:06;20.70;99.90
20714;DHT22;10518;50.742;4.226;2022-10-23T16:02:32;20.60;99.90
20714;DHT22;10518;50.742;4.226;2022-10-23T16:04:58;20.60;99.90
20714;DHT22;10518;50.742;4.226;2022-10-23T16:07:23;20.60;99.90
20714;DHT22;10518;50.742;4.226;2022-10-23T16:09:49;20.40;99.90
20714;DHT22;10518;50.742;4.226;2022-10-23T16:12:14;20.40;99.90
20714;DHT22;10518;50.742;4.226;2022-10-23T16:14:41;20.30;99.90
20714;DHT22;10518;50.742;4.226;2022-10-23T16:17:07;20.20;99.90
20714;DHT22;10518;50.742;4.226;2022-10-23T16:19:33;20.20;99.90
20714;DHT22;10518;50.742;4.226;2022-10-23T16:21:58;20.20;99.90
20714;DHT22;10518;50.742;4.226;2022-10-23T16:24:24;20.20;99.90
20714;DHT22;10518;50.742;4.226;2022-10-23T16:26:50;20.30;99.90
20714;DHT22;10518;50.742;4.226;2022-10-23T16:29:19;20.10;99.90
20714;DHT22;10518;50.742;4.226;2022-10-23T16:31:46;20.00;99.90
20714;DHT22;10518;50.742;4.226;2022-10-23T16:34:12;20.10;99.90
20714;DHT22;10518;50.742;4.226;2022-10-23T16:36:37;19.80;99.90
20714;DHT22;10518;50.742;4.226;2022-10-23T16:39:04;19.80;99.90
20714;DHT22;10518;50.742;4.226;2022-10-23T16:41:30;19.80;99.90
20714;DHT22;10518;50.742;4.226;2022-10-23T16:43:56;19.80;99.90
20714;DHT22;10518;50.742;4.226;2022-10-23T16:46:21;19.70;99.90
20714;DHT22;10518;50.742;4.226;2022-10-23T16:48:49;19.60;99.90
20714;DHT22;10518;50.742;4.226;2022-10-23T16:51:18;19.80;99.90
20714;DHT22;10518;50.742;4.226;2022-10-23T16:53:44;19.80;99.90
20714;DHT22;10518;50.742;4.226;2022-10-23T16:56:13;19.80;99.90
20714;DHT22;10518;50.742;4.226;2022-10-23T16:58:39;19.90;99.90
20714;DHT22;10518;50.742;4.226;2022-10-23T17:01:17;19.80;99.90
20714;DHT22;10518;50.742;4.226;2022-10-23T17:03:45;19.90;99.90
20714;DHT22;10518;50.742;4.226;2022-10-23T17:06:17;20.00;99.90
20714;DHT22;10518;50.742;4.226;2022-10-23T17:08:43;19.80;99.90
20714;DHT22;10518;50.742;4.226;2022-10-23T17:11:12;19.80;99.90
20714;DHT22;10518;50.742;4.226;2022-10-23T17:13:41;19.70;99.90
20714;DHT22;10518;50.742;4.226;2022-10-23T17:16:31;19.80;99.90
20714;DHT22;10518;50.742;4.226;2022-10-23T17:18:58;19.60;99.90
20714;DHT22;10518;50.742;4.226;2022-10-23T17:21:24;19.60;99.90
20714;DHT22;10518;50.742;4.226;2022-10-23T17:23:50;19.80;99.90
20714;DHT22;10518;50.742;4.226;2022-10-23T17:26:18;19.70;99.90
20714;DHT22;10518;50.742;4.226;2022-10-23T17:28:44;19.90;99.90
20714;DHT22;10518;50.742;4.226;2022-10-23T17:31:11;19.70;99.90